Clovis, NM

11:54 PM MDT on April 25, 2018 (GMT -0600)
Clovis Municipal

Weather History for KCVN - May, 2013

Change the Weather History Date:

Monday, May 13, 2013

  Actual Average Record
Temperature  
Mean Temperature 68 °F -  
Max Temperature 84 °F 79 °F 96 °F (1962)
Min Temperature 51 °F 49 °F 33 °F (1953)
Cooling Degree Days 2    
Growing Degree Days 18 (Base 50)    
Moisture  
Dew Point 32 °F    
Average Humidity 30    
Maximum Humidity 51    
Minimum Humidity 14    
Precipitation  
Precipitation 0.00 in - - ()
Sea Level Pressure  
Sea Level Pressure 30.25 in    
Wind  
Wind Speed 13 mph (SW)    
Max Wind Speed 23 mph    
Max Gust Speed 28 mph    
Visibility 10 miles    
Events      
Averages and records for this station are not official NWS values.
T = Trace of Precipitation, MM = Missing Value Source: NWS Daily Summary

Daily Weather History Graph

Daily Weather History Graph

Search for Another Location

Airport or City:

Astronomy

May. 13, 2013 Rise Set
Actual Time 5:51 AM MDT 7:46 PM MDT
Civil Twilight 5:23 AM MDT 8:14 PM MDT
Nautical Twilight 4:50 AM MDT 8:47 PM MDT
Astronomical Twilight 4:14 AM MDT 9:23 PM MDT
Moon 8:40 AM MDT (5/13) 10:57 PM MDT (5/13)
Length of Visible Light 14h 50m
Length of Day
13h 55m
Waxing Crescent, 12% of the Moon is Illuminated
May 13
Waxing Crescent
May 17
First Quarter
May 24
Full
May 31
Last Quarter
Jun 8
New

Hourly Weather History & Observations

Time (MDT) Temp. Dew Point Humidity Pressure Visibility Wind Dir Wind Speed Gust Speed Precip Events Conditions
12:15 AM 53.6 °F 33.8 °F 47% 30.25 in 10.0 mi SW 10.4 mph - N/A   Clear
12:35 AM 51.8 °F 33.8 °F 50% 30.26 in 10.0 mi SW 10.4 mph - N/A   Clear
12:55 AM 53.6 °F 32.0 °F 44% 30.25 in 10.0 mi WSW 10.4 mph - N/A   Clear
1:15 AM 55.4 °F 32.0 °F 41% 30.26 in 10.0 mi WSW 11.5 mph - N/A   Clear
1:35 AM 53.6 °F 32.0 °F 44% 30.25 in 10.0 mi WSW 11.5 mph - N/A   Clear
1:55 AM 53.6 °F 32.0 °F 44% 30.25 in 10.0 mi WSW 11.5 mph - N/A   Clear
2:15 AM 53.6 °F 32.0 °F 44% 30.25 in 10.0 mi WSW 10.4 mph - N/A   Clear
2:35 AM 53.6 °F 32.0 °F 44% 30.25 in 10.0 mi SW 10.4 mph - N/A   Clear
2:55 AM 53.6 °F 32.0 °F 44% 30.25 in 10.0 mi WSW 9.2 mph - N/A   Clear
3:15 AM 53.6 °F 32.0 °F 44% 30.26 in 10.0 mi WSW 9.2 mph - N/A   Clear
3:35 AM 53.6 °F 32.0 °F 44% 30.26 in 10.0 mi WSW 10.4 mph - N/A   Clear
3:55 AM 51.8 °F 30.2 °F 44% 30.26 in 10.0 mi WSW 10.4 mph - N/A   Clear
4:15 AM 53.6 °F 32.0 °F 44% 30.26 in 10.0 mi WSW 11.5 mph - N/A   Clear
4:35 AM 53.6 °F 33.8 °F 47% 30.26 in 10.0 mi WSW 12.7 mph - N/A   Clear
4:55 AM 53.6 °F 33.8 °F 47% 30.26 in 10.0 mi WSW 12.7 mph - N/A   Clear
5:15 AM 53.6 °F 33.8 °F 47% 30.26 in 10.0 mi WSW 15.0 mph - N/A   Clear
5:35 AM 53.6 °F 33.8 °F 47% 30.26 in 10.0 mi WSW 13.8 mph - N/A   Clear
5:55 AM 53.6 °F 35.6 °F 51% 30.27 in 10.0 mi WSW 12.7 mph - N/A   Clear
6:15 AM 53.6 °F 33.8 °F 47% 30.28 in 10.0 mi WSW 11.5 mph - N/A   Clear
6:35 AM 53.6 °F 35.6 °F 51% 30.29 in 10.0 mi WSW 13.8 mph - N/A   Clear
6:55 AM 55.4 °F 35.6 °F 47% 30.30 in 10.0 mi WSW 12.7 mph - N/A   Clear
7:15 AM 57.2 °F 35.6 °F 44% 30.30 in 10.0 mi WSW 16.1 mph - N/A   Clear
7:35 AM 60.8 °F 37.4 °F 42% 30.30 in 10.0 mi WSW 18.4 mph - N/A   Clear
7:55 AM 62.6 °F 37.4 °F 39% 30.30 in 10.0 mi WSW 21.9 mph 25.3 mph N/A   Clear
8:15 AM 64.4 °F 37.4 °F 37% 30.31 in 10.0 mi WSW 19.6 mph 24.2 mph N/A   Clear
8:35 AM 66.2 °F 37.4 °F 35% 30.31 in 10.0 mi WSW 23.0 mph 26.5 mph N/A   Clear
8:55 AM 69.8 °F 39.2 °F 33% 30.30 in 10.0 mi WSW 23.0 mph 27.6 mph N/A   Clear
9:15 AM 69.8 °F 39.2 °F 33% 30.30 in 10.0 mi WSW 20.7 mph 26.5 mph N/A   Clear
9:35 AM 71.6 °F 39.2 °F 31% 30.30 in 10.0 mi WSW 18.4 mph 24.2 mph N/A   Clear
9:55 AM 73.4 °F 37.4 °F 27% 30.30 in 10.0 mi WSW 19.6 mph - N/A   Clear
10:15 AM 73.4 °F 37.4 °F 27% 30.29 in 10.0 mi WSW 19.6 mph 24.2 mph N/A   Clear
10:35 AM 75.2 °F 37.4 °F 25% 30.29 in 10.0 mi WSW 17.3 mph 23.0 mph N/A   Clear
10:55 AM 77.0 °F 37.4 °F 24% 30.29 in 10.0 mi SW 18.4 mph - N/A   Clear
11:15 AM 78.8 °F 37.4 °F 23% 30.29 in 10.0 mi SW 15.0 mph 24.2 mph N/A   Clear
11:35 AM 78.8 °F 35.6 °F 21% 30.28 in 10.0 mi WSW 18.4 mph 21.9 mph N/A   Clear
11:55 AM 80.6 °F 35.6 °F 20% 30.28 in 10.0 mi SW 12.7 mph 21.9 mph N/A   Clear
12:15 PM 80.6 °F 35.6 °F 20% 30.28 in 10.0 mi SSW 15.0 mph 19.6 mph N/A   Clear
12:55 PM 82.4 °F 33.8 °F 17% 30.26 in 10.0 mi South 15.0 mph 20.7 mph N/A   Unknown
1:15 PM 82.4 °F 32.0 °F 16% 30.25 in 8.0 mi SW 17.3 mph 25.3 mph N/A   Clear
1:35 PM 82.4 °F 30.2 °F 15% 30.25 in 10.0 mi SSW 10.4 mph 23.0 mph N/A   Clear
2:35 PM 84.2 °F 30.2 °F 14% 30.24 in 10.0 mi SSW 13.8 mph 25.3 mph N/A   Clear
2:55 PM 82.4 °F 30.2 °F 15% 30.22 in 10.0 mi SSW 17.3 mph 26.5 mph N/A   Clear
3:15 PM 84.2 °F 30.2 °F 14% 30.22 in 10.0 mi South 11.5 mph 24.2 mph N/A   Clear
3:35 PM 82.4 °F 28.4 °F 14% 30.21 in 10.0 mi South 12.7 mph 19.6 mph N/A   Clear
3:55 PM 82.4 °F 28.4 °F 14% 30.21 in 10.0 mi South 15.0 mph 18.4 mph N/A   Clear
4:15 PM 84.2 °F 30.2 °F 14% 30.21 in 10.0 mi South 16.1 mph 19.6 mph N/A   Clear
4:35 PM 82.4 °F 28.4 °F 14% 30.20 in 10.0 mi South 13.8 mph 21.9 mph N/A   Clear
4:55 PM 82.4 °F 28.4 °F 14% 30.19 in 10.0 mi South 15.0 mph 20.7 mph N/A   Clear
5:35 PM 82.4 °F 28.4 °F 14% 30.19 in 10.0 mi SSW 15.0 mph 18.4 mph N/A   Clear
6:15 PM 80.6 °F 28.4 °F 15% 30.18 in 10.0 mi SSE 13.8 mph 18.4 mph N/A   Clear
6:35 PM 80.6 °F 26.6 °F 14% 30.18 in 10.0 mi South 10.4 mph - N/A   Clear
6:55 PM 78.8 °F 28.4 °F 16% 30.18 in 10.0 mi South 16.1 mph - N/A   Clear
7:15 PM 77.0 °F 26.6 °F 16% 30.18 in 10.0 mi South 12.7 mph - N/A   Clear
7:35 PM 75.2 °F 26.6 °F 17% 30.19 in 10.0 mi South 13.8 mph - N/A   Clear
7:55 PM 71.6 °F 26.6 °F 19% 30.19 in 10.0 mi South 12.7 mph - N/A   Clear
8:15 PM 69.8 °F 26.6 °F 20% 30.20 in 10.0 mi South 12.7 mph - N/A   Clear
8:35 PM 68.0 °F 28.4 °F 23% 30.20 in 10.0 mi South 11.5 mph - N/A   Clear
8:55 PM 66.2 °F 28.4 °F 24% 30.20 in 10.0 mi South 11.5 mph - N/A   Clear
9:15 PM 64.4 °F 26.6 °F 24% 30.21 in 10.0 mi South 10.4 mph - N/A   Clear
9:35 PM 64.4 °F 26.6 °F 24% 30.22 in 10.0 mi South 10.4 mph - N/A   Clear
9:55 PM 64.4 °F 26.6 °F 24% 30.22 in 10.0 mi South 11.5 mph - N/A   Clear
10:15 PM 62.6 °F 26.6 °F 26% 30.22 in 10.0 mi South 11.5 mph - N/A   Clear
10:35 PM 62.6 °F 26.6 °F 26% 30.22 in 10.0 mi South 11.5 mph - N/A   Clear
10:55 PM 62.6 °F 26.6 °F 26% 30.22 in 10.0 mi South 11.5 mph - N/A   Clear
11:15 PM 59.0 °F 26.6 °F 29% 30.22 in 10.0 mi South 10.4 mph - N/A   Clear
11:35 PM 57.2 °F 26.6 °F 31% 30.21 in 8.0 mi South 9.2 mph - N/A   Clear
11:55 PM 57.2 °F 26.6 °F 31% 30.21 in 10.0 mi SSW 10.4 mph - N/A   Clear